sensor_id;sensor_type;location;lat;lon;timestamp;P1;durP1;ratioP1;P2;durP2;ratioP2
21299;SDS011;10809;49.476;11.016;2023-12-20T00:01:18;2.27;;;1.03;;
21299;SDS011;10809;49.476;11.016;2023-12-20T00:03:48;1.73;;;1.63;;
21299;SDS011;10809;49.476;11.016;2023-12-20T00:06:20;1.63;;;1.23;;
21299;SDS011;10809;49.476;11.016;2023-12-20T00:08:51;1.37;;;1.27;;
21299;SDS011;10809;49.476;11.016;2023-12-20T00:11:24;1.97;;;1.30;;
21299;SDS011;10809;49.476;11.016;2023-12-20T00:13:55;1.30;;;1.20;;
21299;SDS011;10809;49.476;11.016;2023-12-20T00:16:26;1.20;;;1.10;;
21299;SDS011;10809;49.476;11.016;2023-12-20T00:18:56;2.63;;;1.30;;
21299;SDS011;10809;49.476;11.016;2023-12-20T00:21:26;2.40;;;1.20;;
21299;SDS011;10809;49.476;11.016;2023-12-20T00:23:57;0.93;;;0.93;;
21299;SDS011;10809;49.476;11.016;2023-12-20T00:26:27;1.87;;;1.40;;
21299;SDS011;10809;49.476;11.016;2023-12-20T00:28:58;1.30;;;1.00;;
21299;SDS011;10809;49.476;11.016;2023-12-20T00:31:28;1.07;;;1.00;;
21299;SDS011;10809;49.476;11.016;2023-12-20T00:33:59;0.90;;;0.90;;
21299;SDS011;10809;49.476;11.016;2023-12-20T00:36:29;1.37;;;1.27;;
21299;SDS011;10809;49.476;11.016;2023-12-20T00:39:00;1.80;;;1.40;;
21299;SDS011;10809;49.476;11.016;2023-12-20T00:41:30;1.57;;;1.33;;
21299;SDS011;10809;49.476;11.016;2023-12-20T00:44:00;1.00;;;1.00;;
21299;SDS011;10809;49.476;11.016;2023-12-20T00:46:31;2.50;;;1.10;;
21299;SDS011;10809;49.476;11.016;2023-12-20T00:49:01;0.93;;;0.93;;
21299;SDS011;10809;49.476;11.016;2023-12-20T00:51:32;1.07;;;0.93;;
21299;SDS011;10809;49.476;11.016;2023-12-20T00:54:03;0.80;;;0.80;;
21299;SDS011;10809;49.476;11.016;2023-12-20T00:56:33;0.80;;;0.80;;
21299;SDS011;10809;49.476;11.016;2023-12-20T00:59:03;1.63;;;1.03;;
21299;SDS011;10809;49.476;11.016;2023-12-20T01:01:34;0.97;;;0.97;;
21299;SDS011;10809;49.476;11.016;2023-12-20T01:04:04;1.77;;;1.03;;
21299;SDS011;10809;49.476;11.016;2023-12-20T01:06:35;0.83;;;0.83;;
21299;SDS011;10809;49.476;11.016;2023-12-20T01:09:08;0.77;;;0.77;;
21299;SDS011;10809;49.476;11.016;2023-12-20T01:11:39;0.67;;;0.67;;
21299;SDS011;10809;49.476;11.016;2023-12-20T01:14:09;0.70;;;0.70;;
21299;SDS011;10809;49.476;11.016;2023-12-20T01:16:43;0.80;;;0.50;;
21299;SDS011;10809;49.476;11.016;2023-12-20T01:19:13;0.90;;;0.90;;
21299;SDS011;10809;49.476;11.016;2023-12-20T01:21:44;0.73;;;0.70;;
21299;SDS011;10809;49.476;11.016;2023-12-20T01:24:15;0.97;;;0.63;;
21299;SDS011;10809;49.476;11.016;2023-12-20T01:26:45;1.13;;;0.50;;
21299;SDS011;10809;49.476;11.016;2023-12-20T01:29:16;0.83;;;0.50;;
21299;SDS011;10809;49.476;11.016;2023-12-20T01:31:52;0.60;;;0.60;;
21299;SDS011;10809;49.476;11.016;2023-12-20T01:34:22;0.80;;;0.50;;
21299;SDS011;10809;49.476;11.016;2023-12-20T01:36:53;0.50;;;0.50;;
21299;SDS011;10809;49.476;11.016;2023-12-20T01:39:23;0.73;;;0.40;;
21299;SDS011;10809;49.476;11.016;2023-12-20T01:41:54;0.30;;;0.30;;
21299;SDS011;10809;49.476;11.016;2023-12-20T01:44:24;0.30;;;0.30;;
21299;SDS011;10809;49.476;11.016;2023-12-20T01:46:55;0.47;;;0.47;;
21299;SDS011;10809;49.476;11.016;2023-12-20T01:49:28;0.67;;;0.40;;
21299;SDS011;10809;49.476;11.016;2023-12-20T01:52:02;1.67;;;0.50;;
21299;SDS011;10809;49.476;11.016;2023-12-20T01:54:33;0.50;;;0.37;;
21299;SDS011;10809;49.476;11.016;2023-12-20T01:57:05;0.50;;;0.50;;
21299;SDS011;10809;49.476;11.016;2023-12-20T01:59:37;0.30;;;0.30;;
21299;SDS011;10809;49.476;11.016;2023-12-20T02:02:09;0.53;;;0.53;;
21299;SDS011;10809;49.476;11.016;2023-12-20T02:04:42;0.40;;;0.40;;
21299;SDS011;10809;49.476;11.016;2023-12-20T02:07:16;0.50;;;0.50;;
21299;SDS011;10809;49.476;11.016;2023-12-20T02:09:48;0.27;;;0.27;;
21299;SDS011;10809;49.476;11.016;2023-12-20T02:12:18;0.30;;;0.30;;
21299;SDS011;10809;49.476;11.016;2023-12-20T02:14:49;0.40;;;0.40;;
21299;SDS011;10809;49.476;11.016;2023-12-20T02:17:20;0.63;;;0.20;;
21299;SDS011;10809;49.476;11.016;2023-12-20T02:19:50;0.50;;;0.30;;
21299;SDS011;10809;49.476;11.016;2023-12-20T02:22:21;0.30;;;0.30;;
21299;SDS011;10809;49.476;11.016;2023-12-20T02:24:51;1.00;;;0.30;;
21299;SDS011;10809;49.476;11.016;2023-12-20T02:27:22;1.03;;;0.30;;
21299;SDS011;10809;49.476;11.016;2023-12-20T02:29:53;0.50;;;0.30;;
21299;SDS011;10809;49.476;11.016;2023-12-20T02:32:24;1.40;;;0.33;;
21299;SDS011;10809;49.476;11.016;2023-12-20T02:34:57;0.20;;;0.20;;
21299;SDS011;10809;49.476;11.016;2023-12-20T02:37:28;0.30;;;0.30;;
21299;SDS011;10809;49.476;11.016;2023-12-20T02:39:58;0.10;;;0.10;;
21299;SDS011;10809;49.476;11.016;2023-12-20T02:42:28;0.20;;;0.20;;
21299;SDS011;10809;49.476;11.016;2023-12-20T02:44:59;0.10;;;0.10;;
21299;SDS011;10809;49.476;11.016;2023-12-20T02:47:29;0.10;;;0.10;;
21299;SDS011;10809;49.476;11.016;2023-12-20T02:50:00;0.17;;;0.17;;
21299;SDS011;10809;49.476;11.016;2023-12-20T02:52:30;0.20;;;0.20;;
21299;SDS011;10809;49.476;11.016;2023-12-20T02:55:04;0.20;;;0.20;;
21299;SDS011;10809;49.476;11.016;2023-12-20T02:57:34;0.10;;;0.10;;
21299;SDS011;10809;49.476;11.016;2023-12-20T03:00:06;0.20;;;0.20;;
21299;SDS011;10809;49.476;11.016;2023-12-20T03:02:38;0.10;;;0.10;;
21299;SDS011;10809;49.476;11.016;2023-12-20T03:05:08;0.10;;;0.10;;
21299;SDS011;10809;49.476;11.016;2023-12-20T03:07:41;0.20;;;0.20;;
21299;SDS011;10809;49.476;11.016;2023-12-20T03:10:11;0.20;;;0.20;;
21299;SDS011;10809;49.476;11.016;2023-12-20T03:12:42;0.50;;;0.20;;
21299;SDS011;10809;49.476;11.016;2023-12-20T03:15:12;0.40;;;0.20;;
21299;SDS011;10809;49.476;11.016;2023-12-20T03:17:43;0.10;;;0.10;;
21299;SDS011;10809;49.476;11.016;2023-12-20T03:20:13;0.20;;;0.20;;
21299;SDS011;10809;49.476;11.016;2023-12-20T03:22:44;0.20;;;0.20;;
21299;SDS011;10809;49.476;11.016;2023-12-20T03:25:14;0.20;;;0.20;;
21299;SDS011;10809;49.476;11.016;2023-12-20T03:27:45;0.20;;;0.20;;
21299;SDS011;10809;49.476;11.016;2023-12-20T03:30:15;0.20;;;0.20;;
21299;SDS011;10809;49.476;11.016;2023-12-20T03:32:46;0.20;;;0.20;;
21299;SDS011;10809;49.476;11.016;2023-12-20T03:35:17;0.10;;;0.10;;
21299;SDS011;10809;49.476;11.016;2023-12-20T03:37:50;0.10;;;0.10;;
21299;SDS011;10809;49.476;11.016;2023-12-20T03:40:21;0.20;;;0.20;;
21299;SDS011;10809;49.476;11.016;2023-12-20T03:42:52;0.13;;;0.13;;
21299;SDS011;10809;49.476;11.016;2023-12-20T03:45:22;0.20;;;0.20;;
21299;SDS011;10809;49.476;11.016;2023-12-20T03:47:53;0.17;;;0.17;;
21299;SDS011;10809;49.476;11.016;2023-12-20T03:50:26;0.17;;;0.17;;
21299;SDS011;10809;49.476;11.016;2023-12-20T03:52:57;0.10;;;0.10;;
21299;SDS011;10809;49.476;11.016;2023-12-20T03:55:27;0.10;;;0.10;;
21299;SDS011;10809;49.476;11.016;2023-12-20T03:58:01;0.10;;;0.10;;
21299;SDS011;10809;49.476;11.016;2023-12-20T04:00:31;0.10;;;0.10;;
21299;SDS011;10809;49.476;11.016;2023-12-20T04:03:01;0.20;;;0.20;;
21299;SDS011;10809;49.476;11.016;2023-12-20T04:05:35;0.23;;;0.23;;
21299;SDS011;10809;49.476;11.016;2023-12-20T04:08:07;0.20;;;0.20;;
21299;SDS011;10809;49.476;11.016;2023-12-20T04:10:38;0.10;;;0.10;;
21299;SDS011;10809;49.476;11.016;2023-12-20T04:13:08;0.30;;;0.30;;
21299;SDS011;10809;49.476;11.016;2023-12-20T04:15:39;0.20;;;0.20;;
21299;SDS011;10809;49.476;11.016;2023-12-20T04:18:09;0.20;;;0.20;;
21299;SDS011;10809;49.476;11.016;2023-12-20T04:20:40;0.20;;;0.20;;
21299;SDS011;10809;49.476;11.016;2023-12-20T04:23:13;0.20;;;0.20;;
21299;SDS011;10809;49.476;11.016;2023-12-20T04:25:44;0.20;;;0.20;;
21299;SDS011;10809;49.476;11.016;2023-12-20T04:28:14;0.40;;;0.40;;
21299;SDS011;10809;49.476;11.016;2023-12-20T04:30:44;0.20;;;0.20;;
21299;SDS011;10809;49.476;11.016;2023-12-20T04:33:18;0.10;;;0.10;;
21299;SDS011;10809;49.476;11.016;2023-12-20T04:35:48;0.40;;;0.30;;
21299;SDS011;10809;49.476;11.016;2023-12-20T04:38:25;0.10;;;0.10;;
21299;SDS011;10809;49.476;11.016;2023-12-20T04:40:57;0.10;;;0.10;;
21299;SDS011;10809;49.476;11.016;2023-12-20T04:43:27;0.10;;;0.10;;
21299;SDS011;10809;49.476;11.016;2023-12-20T04:45:58;0.20;;;0.20;;
21299;SDS011;10809;49.476;11.016;2023-12-20T04:48:28;0.20;;;0.20;;
21299;SDS011;10809;49.476;11.016;2023-12-20T04:50:59;0.20;;;0.20;;
21299;SDS011;10809;49.476;11.016;2023-12-20T04:53:29;0.30;;;0.30;;
21299;SDS011;10809;49.476;11.016;2023-12-20T04:56:00;0.47;;;0.30;;
21299;SDS011;10809;49.476;11.016;2023-12-20T04:58:30;0.30;;;0.30;;
21299;SDS011;10809;49.476;11.016;2023-12-20T05:01:01;0.20;;;0.20;;
21299;SDS011;10809;49.476;11.016;2023-12-20T05:03:31;0.20;;;0.20;;
21299;SDS011;10809;49.476;11.016;2023-12-20T05:06:09;0.20;;;0.20;;
21299;SDS011;10809;49.476;11.016;2023-12-20T05:08:40;1.90;;;0.30;;
21299;SDS011;10809;49.476;11.016;2023-12-20T05:11:10;0.10;;;0.10;;
21299;SDS011;10809;49.476;11.016;2023-12-20T05:13:43;0.20;;;0.20;;
21299;SDS011;10809;49.476;11.016;2023-12-20T05:16:13;0.20;;;0.20;;
21299;SDS011;10809;49.476;11.016;2023-12-20T05:18:47;0.30;;;0.30;;
21299;SDS011;10809;49.476;11.016;2023-12-20T05:21:20;0.27;;;0.27;;
21299;SDS011;10809;49.476;11.016;2023-12-20T05:23:51;0.17;;;0.17;;
21299;SDS011;10809;49.476;11.016;2023-12-20T05:26:27;0.90;;;0.40;;
21299;SDS011;10809;49.476;11.016;2023-12-20T05:29:03;0.30;;;0.30;;
21299;SDS011;10809;49.476;11.016;2023-12-20T05:31:36;0.20;;;0.20;;
21299;SDS011;10809;49.476;11.016;2023-12-20T05:34:06;0.13;;;0.13;;
21299;SDS011;10809;49.476;11.016;2023-12-20T05:36:37;0.20;;;0.20;;
21299;SDS011;10809;49.476;11.016;2023-12-20T05:39:08;0.30;;;0.30;;
21299;SDS011;10809;49.476;11.016;2023-12-20T05:41:39;0.20;;;0.20;;
21299;SDS011;10809;49.476;11.016;2023-12-20T05:44:09;0.20;;;0.20;;
21299;SDS011;10809;49.476;11.016;2023-12-20T05:46:49;0.53;;;0.20;;
21299;SDS011;10809;49.476;11.016;2023-12-20T05:49:20;0.20;;;0.20;;
21299;SDS011;10809;49.476;11.016;2023-12-20T05:51:51;0.20;;;0.20;;
21299;SDS011;10809;49.476;11.016;2023-12-20T05:54:22;0.30;;;0.30;;
21299;SDS011;10809;49.476;11.016;2023-12-20T05:56:53;0.30;;;0.30;;
21299;SDS011;10809;49.476;11.016;2023-12-20T05:59:23;1.17;;;0.40;;
21299;SDS011;10809;49.476;11.016;2023-12-20T06:01:54;0.20;;;0.20;;
21299;SDS011;10809;49.476;11.016;2023-12-20T06:04:24;0.20;;;0.20;;
21299;SDS011;10809;49.476;11.016;2023-12-20T06:06:55;0.20;;;0.20;;
21299;SDS011;10809;49.476;11.016;2023-12-20T06:09:28;0.20;;;0.20;;
21299;SDS011;10809;49.476;11.016;2023-12-20T06:11:59;0.20;;;0.20;;
21299;SDS011;10809;49.476;11.016;2023-12-20T06:14:29;0.43;;;0.30;;
21299;SDS011;10809;49.476;11.016;2023-12-20T06:17:00;0.20;;;0.13;;
21299;SDS011;10809;49.476;11.016;2023-12-20T06:19:31;0.10;;;0.10;;
21299;SDS011;10809;49.476;11.016;2023-12-20T06:22:02;0.20;;;0.20;;
21299;SDS011;10809;49.476;11.016;2023-12-20T06:24:32;0.20;;;0.20;;
21299;SDS011;10809;49.476;11.016;2023-12-20T06:27:04;0.30;;;0.30;;
21299;SDS011;10809;49.476;11.016;2023-12-20T06:29:34;0.10;;;0.10;;
21299;SDS011;10809;49.476;11.016;2023-12-20T06:32:05;0.20;;;0.20;;
21299;SDS011;10809;49.476;11.016;2023-12-20T06:34:35;1.27;;;0.50;;
21299;SDS011;10809;49.476;11.016;2023-12-20T06:37:06;0.20;;;0.20;;
21299;SDS011;10809;49.476;11.016;2023-12-20T06:39:36;0.23;;;0.23;;
21299;SDS011;10809;49.476;11.016;2023-12-20T06:42:07;0.30;;;0.30;;
21299;SDS011;10809;49.476;11.016;2023-12-20T06:44:40;0.23;;;0.23;;
21299;SDS011;10809;49.476;11.016;2023-12-20T06:47:11;0.20;;;0.20;;
21299;SDS011;10809;49.476;11.016;2023-12-20T06:49:41;0.10;;;0.10;;
21299;SDS011;10809;49.476;11.016;2023-12-20T06:52:12;1.50;;;0.30;;
21299;SDS011;10809;49.476;11.016;2023-12-20T06:54:42;0.20;;;0.20;;
21299;SDS011;10809;49.476;11.016;2023-12-20T06:57:13;0.33;;;0.30;;
21299;SDS011;10809;49.476;11.016;2023-12-20T06:59:43;0.30;;;0.30;;
21299;SDS011;10809;49.476;11.016;2023-12-20T07:02:14;0.20;;;0.20;;
21299;SDS011;10809;49.476;11.016;2023-12-20T07:04:44;1.80;;;0.40;;
21299;SDS011;10809;49.476;11.016;2023-12-20T07:07:18;0.30;;;0.30;;
21299;SDS011;10809;49.476;11.016;2023-12-20T07:09:48;0.20;;;0.20;;
21299;SDS011;10809;49.476;11.016;2023-12-20T07:12:19;0.47;;;0.43;;
21299;SDS011;10809;49.476;11.016;2023-12-20T07:14:49;0.50;;;0.50;;
21299;SDS011;10809;49.476;11.016;2023-12-20T07:17:20;0.50;;;0.50;;
21299;SDS011;10809;49.476;11.016;2023-12-20T07:19:51;0.50;;;0.50;;
21299;SDS011;10809;49.476;11.016;2023-12-20T07:22:21;0.40;;;0.40;;
21299;SDS011;10809;49.476;11.016;2023-12-20T07:24:52;0.33;;;0.33;;
21299;SDS011;10809;49.476;11.016;2023-12-20T07:27:24;0.50;;;0.50;;
21299;SDS011;10809;49.476;11.016;2023-12-20T07:29:55;1.30;;;0.60;;
21299;SDS011;10809;49.476;11.016;2023-12-20T07:32:26;0.57;;;0.57;;
21299;SDS011;10809;49.476;11.016;2023-12-20T07:34:56;1.67;;;0.70;;
21299;SDS011;10809;49.476;11.016;2023-12-20T07:37:27;0.40;;;0.40;;
21299;SDS011;10809;49.476;11.016;2023-12-20T07:39:57;0.90;;;0.60;;
21299;SDS011;10809;49.476;11.016;2023-12-20T07:42:28;0.20;;;0.20;;
21299;SDS011;10809;49.476;11.016;2023-12-20T07:44:58;0.67;;;0.60;;
21299;SDS011;10809;49.476;11.016;2023-12-20T07:47:29;0.50;;;0.50;;
21299;SDS011;10809;49.476;11.016;2023-12-20T07:49:59;0.40;;;0.40;;
21299;SDS011;10809;49.476;11.016;2023-12-20T07:52:29;0.53;;;0.53;;
21299;SDS011;10809;49.476;11.016;2023-12-20T07:55:00;0.60;;;0.60;;
21299;SDS011;10809;49.476;11.016;2023-12-20T07:57:31;0.40;;;0.40;;
21299;SDS011;10809;49.476;11.016;2023-12-20T08:00:02;0.60;;;0.60;;
21299;SDS011;10809;49.476;11.016;2023-12-20T08:02:34;0.50;;;0.50;;
21299;SDS011;10809;49.476;11.016;2023-12-20T08:05:05;0.37;;;0.37;;
21299;SDS011;10809;49.476;11.016;2023-12-20T08:07:35;0.60;;;0.60;;
21299;SDS011;10809;49.476;11.016;2023-12-20T08:10:06;0.40;;;0.40;;
21299;SDS011;10809;49.476;11.016;2023-12-20T08:12:37;0.40;;;0.40;;
21299;SDS011;10809;49.476;11.016;2023-12-20T08:15:10;0.40;;;0.40;;
21299;SDS011;10809;49.476;11.016;2023-12-20T08:17:44;0.60;;;0.60;;
21299;SDS011;10809;49.476;11.016;2023-12-20T08:20:14;0.50;;;0.50;;
21299;SDS011;10809;49.476;11.016;2023-12-20T08:22:44;0.60;;;0.60;;
21299;SDS011;10809;49.476;11.016;2023-12-20T08:25:15;0.50;;;0.50;;
21299;SDS011;10809;49.476;11.016;2023-12-20T08:27:48;0.40;;;0.40;;
21299;SDS011;10809;49.476;11.016;2023-12-20T08:30:25;0.50;;;0.50;;
21299;SDS011;10809;49.476;11.016;2023-12-20T08:32:55;0.50;;;0.50;;
21299;SDS011;10809;49.476;11.016;2023-12-20T08:35:28;0.50;;;0.50;;
21299;SDS011;10809;49.476;11.016;2023-12-20T08:37:59;0.60;;;0.60;;
21299;SDS011;10809;49.476;11.016;2023-12-20T08:40:32;2.13;;;0.60;;
21299;SDS011;10809;49.476;11.016;2023-12-20T08:43:03;1.60;;;0.73;;
21299;SDS011;10809;49.476;11.016;2023-12-20T08:45:33;0.73;;;0.70;;
21299;SDS011;10809;49.476;11.016;2023-12-20T08:48:03;0.57;;;0.57;;
21299;SDS011;10809;49.476;11.016;2023-12-20T08:50:34;0.93;;;0.50;;
21299;SDS011;10809;49.476;11.016;2023-12-20T08:53:04;1.03;;;0.80;;
21299;SDS011;10809;49.476;11.016;2023-12-20T08:55:35;0.57;;;0.40;;
21299;SDS011;10809;49.476;11.016;2023-12-20T08:58:05;0.63;;;0.63;;
21299;SDS011;10809;49.476;11.016;2023-12-20T09:00:37;0.70;;;0.70;;
21299;SDS011;10809;49.476;11.016;2023-12-20T09:03:08;0.57;;;0.57;;
21299;SDS011;10809;49.476;11.016;2023-12-20T09:05:39;0.67;;;0.67;;
21299;SDS011;10809;49.476;11.016;2023-12-20T09:08:09;0.57;;;0.57;;
21299;SDS011;10809;49.476;11.016;2023-12-20T09:10:40;0.80;;;0.80;;
21299;SDS011;10809;49.476;11.016;2023-12-20T09:13:10;0.50;;;0.50;;
21299;SDS011;10809;49.476;11.016;2023-12-20T09:15:41;0.70;;;0.70;;
21299;SDS011;10809;49.476;11.016;2023-12-20T09:18:11;0.70;;;0.70;;
21299;SDS011;10809;49.476;11.016;2023-12-20T09:20:42;0.50;;;0.50;;
21299;SDS011;10809;49.476;11.016;2023-12-20T09:23:12;1.07;;;0.70;;
21299;SDS011;10809;49.476;11.016;2023-12-20T09:25:42;0.50;;;0.50;;
21299;SDS011;10809;49.476;11.016;2023-12-20T09:28:13;0.70;;;0.67;;
21299;SDS011;10809;49.476;11.016;2023-12-20T09:30:43;0.93;;;0.67;;
21299;SDS011;10809;49.476;11.016;2023-12-20T09:33:16;0.47;;;0.47;;
21299;SDS011;10809;49.476;11.016;2023-12-20T09:35:46;0.50;;;0.40;;
21299;SDS011;10809;49.476;11.016;2023-12-20T09:38:17;0.77;;;0.60;;
21299;SDS011;10809;49.476;11.016;2023-12-20T09:40:50;0.40;;;0.40;;
21299;SDS011;10809;49.476;11.016;2023-12-20T09:43:21;0.40;;;0.40;;
21299;SDS011;10809;49.476;11.016;2023-12-20T09:45:55;1.17;;;0.60;;
21299;SDS011;10809;49.476;11.016;2023-12-20T09:48:30;0.90;;;0.50;;
21299;SDS011;10809;49.476;11.016;2023-12-20T09:51:01;0.30;;;0.30;;
21299;SDS011;10809;49.476;11.016;2023-12-20T09:53:31;0.77;;;0.40;;
21299;SDS011;10809;49.476;11.016;2023-12-20T09:56:06;0.40;;;0.40;;
21299;SDS011;10809;49.476;11.016;2023-12-20T09:58:46;0.70;;;0.70;;
21299;SDS011;10809;49.476;11.016;2023-12-20T10:01:17;0.50;;;0.50;;
21299;SDS011;10809;49.476;11.016;2023-12-20T10:03:51;0.43;;;0.43;;
21299;SDS011;10809;49.476;11.016;2023-12-20T10:06:24;0.33;;;0.30;;
21299;SDS011;10809;49.476;11.016;2023-12-20T10:08:54;1.53;;;0.57;;
21299;SDS011;10809;49.476;11.016;2023-12-20T10:11:25;0.70;;;0.43;;
21299;SDS011;10809;49.476;11.016;2023-12-20T10:13:59;0.43;;;0.43;;
21299;SDS011;10809;49.476;11.016;2023-12-20T10:16:41;0.20;;;0.20;;
21299;SDS011;10809;49.476;11.016;2023-12-20T10:19:12;0.70;;;0.70;;
21299;SDS011;10809;49.476;11.016;2023-12-20T10:21:42;0.53;;;0.43;;
21299;SDS011;10809;49.476;11.016;2023-12-20T10:24:16;1.03;;;0.57;;
21299;SDS011;10809;49.476;11.016;2023-12-20T10:26:47;2.97;;;0.60;;
21299;SDS011;10809;49.476;11.016;2023-12-20T10:29:18;1.53;;;0.53;;
21299;SDS011;10809;49.476;11.016;2023-12-20T10:31:48;2.30;;;0.57;;
21299;SDS011;10809;49.476;11.016;2023-12-20T10:34:20;0.30;;;0.30;;
21299;SDS011;10809;49.476;11.016;2023-12-20T10:36:50;0.40;;;0.40;;
21299;SDS011;10809;49.476;11.016;2023-12-20T10:39:21;0.83;;;0.40;;
21299;SDS011;10809;49.476;11.016;2023-12-20T10:41:53;0.50;;;0.50;;
21299;SDS011;10809;49.476;11.016;2023-12-20T10:44:23;0.53;;;0.50;;
21299;SDS011;10809;49.476;11.016;2023-12-20T10:46:54;0.70;;;0.50;;
21299;SDS011;10809;49.476;11.016;2023-12-20T10:49:28;0.20;;;0.20;;
21299;SDS011;10809;49.476;11.016;2023-12-20T10:51:59;3.27;;;0.47;;
21299;SDS011;10809;49.476;11.016;2023-12-20T10:54:34;1.60;;;0.37;;
21299;SDS011;10809;49.476;11.016;2023-12-20T10:57:05;1.30;;;0.40;;
21299;SDS011;10809;49.476;11.016;2023-12-20T10:59:39;2.83;;;0.73;;
21299;SDS011;10809;49.476;11.016;2023-12-20T11:02:09;2.33;;;0.60;;
21299;SDS011;10809;49.476;11.016;2023-12-20T11:05:10;3.23;;;0.73;;
21299;SDS011;10809;49.476;11.016;2023-12-20T11:07:54;1.60;;;0.50;;
21299;SDS011;10809;49.476;11.016;2023-12-20T11:10:31;1.13;;;0.60;;
21299;SDS011;10809;49.476;11.016;2023-12-20T11:13:10;2.67;;;0.50;;
21299;SDS011;10809;49.476;11.016;2023-12-20T11:15:46;0.90;;;0.50;;
21299;SDS011;10809;49.476;11.016;2023-12-20T11:18:17;1.03;;;0.60;;
21299;SDS011;10809;49.476;11.016;2023-12-20T11:20:51;1.80;;;0.50;;
21299;SDS011;10809;49.476;11.016;2023-12-20T11:23:21;0.67;;;0.40;;
21299;SDS011;10809;49.476;11.016;2023-12-20T11:25:52;0.90;;;0.50;;
21299;SDS011;10809;49.476;11.016;2023-12-20T11:28:24;1.73;;;1.23;;
21299;SDS011;10809;49.476;11.016;2023-12-20T11:30:56;0.93;;;0.50;;
21299;SDS011;10809;49.476;11.016;2023-12-20T11:33:36;3.33;;;0.47;;
21299;SDS011;10809;49.476;11.016;2023-12-20T11:36:14;0.80;;;0.40;;
21299;SDS011;10809;49.476;11.016;2023-12-20T11:38:53;1.27;;;0.43;;
21299;SDS011;10809;49.476;11.016;2023-12-20T11:41:26;1.73;;;0.50;;
21299;SDS011;10809;49.476;11.016;2023-12-20T11:43:57;0.67;;;0.50;;
21299;SDS011;10809;49.476;11.016;2023-12-20T11:46:27;1.47;;;0.50;;
21299;SDS011;10809;49.476;11.016;2023-12-20T11:48:57;1.83;;;0.47;;
21299;SDS011;10809;49.476;11.016;2023-12-20T11:51:28;0.77;;;0.50;;
21299;SDS011;10809;49.476;11.016;2023-12-20T11:53:58;1.20;;;0.40;;
21299;SDS011;10809;49.476;11.016;2023-12-20T11:56:28;0.57;;;0.50;;
21299;SDS011;10809;49.476;11.016;2023-12-20T11:58:59;0.93;;;0.40;;
21299;SDS011;10809;49.476;11.016;2023-12-20T12:01:29;2.00;;;0.60;;
21299;SDS011;10809;49.476;11.016;2023-12-20T12:04:05;2.23;;;0.50;;
21299;SDS011;10809;49.476;11.016;2023-12-20T12:06:36;1.50;;;0.67;;
21299;SDS011;10809;49.476;11.016;2023-12-20T12:09:06;1.47;;;0.57;;
21299;SDS011;10809;49.476;11.016;2023-12-20T12:11:37;0.80;;;0.50;;
21299;SDS011;10809;49.476;11.016;2023-12-20T12:14:08;0.73;;;0.40;;
21299;SDS011;10809;49.476;11.016;2023-12-20T12:16:38;0.40;;;0.40;;
21299;SDS011;10809;49.476;11.016;2023-12-20T12:19:24;0.97;;;0.77;;
21299;SDS011;10809;49.476;11.016;2023-12-20T12:24:44;1.23;;;0.60;;
21299;SDS011;10809;49.476;11.016;2023-12-20T12:27:14;2.13;;;0.67;;
21299;SDS011;10809;49.476;11.016;2023-12-20T12:30:01;1.17;;;0.50;;
21299;SDS011;10809;49.476;11.016;2023-12-20T12:32:33;1.43;;;0.80;;
21299;SDS011;10809;49.476;11.016;2023-12-20T12:35:04;0.90;;;0.60;;
21299;SDS011;10809;49.476;11.016;2023-12-20T12:37:39;0.80;;;0.57;;
21299;SDS011;10809;49.476;11.016;2023-12-20T12:40:10;2.63;;;0.90;;
21299;SDS011;10809;49.476;11.016;2023-12-20T12:42:44;1.13;;;0.60;;
21299;SDS011;10809;49.476;11.016;2023-12-20T12:45:15;0.50;;;0.50;;
21299;SDS011;10809;49.476;11.016;2023-12-20T12:47:45;1.57;;;0.73;;
21299;SDS011;10809;49.476;11.016;2023-12-20T12:50:16;0.97;;;0.67;;
21299;SDS011;10809;49.476;11.016;2023-12-20T12:52:46;3.70;;;0.93;;
21299;SDS011;10809;49.476;11.016;2023-12-20T12:55:17;1.63;;;0.67;;
21299;SDS011;10809;49.476;11.016;2023-12-20T12:57:47;2.73;;;0.60;;
21299;SDS011;10809;49.476;11.016;2023-12-20T13:00:18;1.23;;;0.57;;
21299;SDS011;10809;49.476;11.016;2023-12-20T13:02:50;1.03;;;0.40;;
21299;SDS011;10809;49.476;11.016;2023-12-20T13:05:21;0.57;;;0.53;;
21299;SDS011;10809;49.476;11.016;2023-12-20T13:07:52;1.33;;;0.40;;
21299;SDS011;10809;49.476;11.016;2023-12-20T13:10:22;2.43;;;1.00;;
21299;SDS011;10809;49.476;11.016;2023-12-20T13:12:52;1.97;;;0.60;;
21299;SDS011;10809;49.476;11.016;2023-12-20T13:15:23;1.13;;;0.50;;
21299;SDS011;10809;49.476;11.016;2023-12-20T13:17:53;1.77;;;0.87;;
21299;SDS011;10809;49.476;11.016;2023-12-20T13:20:23;1.33;;;0.60;;
21299;SDS011;10809;49.476;11.016;2023-12-20T13:22:54;1.00;;;0.90;;
21299;SDS011;10809;49.476;11.016;2023-12-20T13:25:24;2.00;;;0.70;;
21299;SDS011;10809;49.476;11.016;2023-12-20T13:27:55;1.10;;;0.70;;
21299;SDS011;10809;49.476;11.016;2023-12-20T13:30:25;1.77;;;0.70;;
21299;SDS011;10809;49.476;11.016;2023-12-20T13:32:55;1.23;;;0.60;;
21299;SDS011;10809;49.476;11.016;2023-12-20T13:35:25;0.70;;;0.47;;
21299;SDS011;10809;49.476;11.016;2023-12-20T13:37:56;1.40;;;0.70;;
21299;SDS011;10809;49.476;11.016;2023-12-20T13:40:26;1.67;;;0.40;;
21299;SDS011;10809;49.476;11.016;2023-12-20T13:42:56;1.90;;;0.40;;
21299;SDS011;10809;49.476;11.016;2023-12-20T13:45:27;0.97;;;0.57;;
21299;SDS011;10809;49.476;11.016;2023-12-20T13:47:58;2.80;;;0.60;;
21299;SDS011;10809;49.476;11.016;2023-12-20T13:50:28;0.80;;;0.30;;
21299;SDS011;10809;49.476;11.016;2023-12-20T13:52:59;2.67;;;0.50;;
21299;SDS011;10809;49.476;11.016;2023-12-20T13:55:34;0.40;;;0.40;;
21299;SDS011;10809;49.476;11.016;2023-12-20T13:58:07;2.83;;;0.67;;
21299;SDS011;10809;49.476;11.016;2023-12-20T14:00:37;1.10;;;0.80;;
21299;SDS011;10809;49.476;11.016;2023-12-20T14:03:08;1.60;;;0.60;;
21299;SDS011;10809;49.476;11.016;2023-12-20T14:05:39;4.53;;;0.90;;
21299;SDS011;10809;49.476;11.016;2023-12-20T14:08:09;1.83;;;0.70;;
21299;SDS011;10809;49.476;11.016;2023-12-20T14:10:43;1.23;;;0.67;;
21299;SDS011;10809;49.476;11.016;2023-12-20T14:13:13;1.80;;;0.43;;
21299;SDS011;10809;49.476;11.016;2023-12-20T14:15:47;1.10;;;0.67;;
21299;SDS011;10809;49.476;11.016;2023-12-20T14:18:19;1.07;;;0.63;;
21299;SDS011;10809;49.476;11.016;2023-12-20T14:20:49;1.40;;;0.70;;
21299;SDS011;10809;49.476;11.016;2023-12-20T14:23:20;2.30;;;0.80;;
21299;SDS011;10809;49.476;11.016;2023-12-20T14:25:51;2.33;;;0.80;;
21299;SDS011;10809;49.476;11.016;2023-12-20T14:28:21;1.03;;;0.50;;
21299;SDS011;10809;49.476;11.016;2023-12-20T14:30:52;3.37;;;0.60;;
21299;SDS011;10809;49.476;11.016;2023-12-20T14:33:22;0.97;;;0.40;;
21299;SDS011;10809;49.476;11.016;2023-12-20T14:35:52;1.00;;;0.60;;
21299;SDS011;10809;49.476;11.016;2023-12-20T14:38:23;0.97;;;0.60;;
21299;SDS011;10809;49.476;11.016;2023-12-20T14:40:53;1.60;;;0.50;;
21299;SDS011;10809;49.476;11.016;2023-12-20T14:43:23;0.23;;;0.23;;
21299;SDS011;10809;49.476;11.016;2023-12-20T14:45:55;0.93;;;0.30;;
21299;SDS011;10809;49.476;11.016;2023-12-20T14:48:25;0.50;;;0.40;;
21299;SDS011;10809;49.476;11.016;2023-12-20T14:50:57;1.60;;;0.63;;
21299;SDS011;10809;49.476;11.016;2023-12-20T14:53:29;1.50;;;0.50;;
21299;SDS011;10809;49.476;11.016;2023-12-20T14:55:59;1.73;;;0.77;;
21299;SDS011;10809;49.476;11.016;2023-12-20T14:58:29;2.80;;;0.70;;
21299;SDS011;10809;49.476;11.016;2023-12-20T15:01:00;0.93;;;0.50;;